Time;durP1;ratioP1;P1;durP2;ratioP2;P2;SDS_P1;SDS_P2;PMS_P1;PMS_P2;Temp;Humidity;BMP_temperature;BMP_pressure;BME280_temperature;BME280_humidity;BME280_pressure;Samples;Min_cycle;Max_cycle;Signal;HPM_P1;HPM_P2
2022/04/01 00:00:45;;;;;;;1.15;0.65;;;;;;;0.42;73.67;100100.13;4968379;28;20057;-42
2022/04/01 00:03:12;;;;;;;1.67;0.73;;;;;;;0.40;73.87;100106.84;4965037;28;20047;-43
2022/04/01 00:05:39;;;;;;;3.15;1.00;;;;;;;0.40;73.72;100106.84;4968875;28;20051;-43
2022/04/01 00:08:08;;;;;;;2.88;0.77;;;;;;;0.38;73.61;100111.88;4968726;28;20055;-44
2022/04/01 00:10:35;;;;;;;1.80;0.70;;;;;;;0.33;73.93;100112.50;4966142;28;20457;-43
2022/04/01 00:13:02;;;;;;;3.40;1.55;;;;;;;0.30;74.02;100112.41;4966782;28;20058;-44
2022/04/01 00:15:29;;;;;;;6.60;1.15;;;;;;;0.30;74.42;100117.50;4966728;28;20101;-46
2022/04/01 00:17:56;;;;;;;3.55;1.30;;;;;;;0.30;73.91;100132.78;4969157;28;20069;-43
2022/04/01 00:20:25;;;;;;;8.32;1.50;;;;;;;0.29;74.32;100131.00;4965518;28;20094;-46
2022/04/01 00:22:54;;;;;;;2.20;1.17;;;;;;;0.28;74.53;100132.72;4967510;28;20109;-45
2022/04/01 00:25:24;;;;;;;5.05;1.83;;;;;;;0.30;74.83;100136.19;4966721;28;20061;-47
2022/04/01 00:27:53;;;;;;;4.65;1.33;;;;;;;0.34;74.41;100132.09;4967898;28;20156;-42
2022/04/01 00:30:22;;;;;;;3.53;1.75;;;;;;;0.32;75.34;100126.06;4964583;28;20062;-45
2022/04/01 00:32:51;;;;;;;3.38;1.27;;;;;;;0.31;74.79;100120.09;4963521;28;20046;-42
2022/04/01 00:35:19;;;;;;;5.75;1.52;;;;;;;0.32;75.30;100104.00;4967075;28;20065;-45
2022/04/01 00:37:46;;;;;;;2.75;0.80;;;;;;;0.32;75.26;100110.75;4964739;28;20051;-41
2022/04/01 00:40:31;;;;;;;4.47;1.55;;;;;;;0.32;74.92;100115.84;4967047;28;20054;-44
2022/04/01 00:42:57;;;;;;;2.40;1.23;;;;;;;0.29;74.87;100106.41;4968025;28;20050;-44
2022/04/01 00:45:24;;;;;;;2.55;1.77;;;;;;;0.25;75.19;100113.09;4964717;28;20050;-41
2022/04/01 00:47:51;;;;;;;5.18;1.75;;;;;;;0.23;75.55;100122.31;4965704;28;20067;-43
2022/04/01 00:50:18;;;;;;;2.80;1.38;;;;;;;0.24;75.20;100115.56;4968086;28;20063;-42
2022/04/01 00:52:45;;;;;;;3.78;1.00;;;;;;;0.18;75.50;100113.63;4968567;28;20776;-43
2022/04/01 00:55:12;;;;;;;3.33;1.27;;;;;;;0.18;75.62;100118.72;4966181;28;20106;-42
2022/04/01 00:57:40;;;;;;;5.40;1.67;;;;;;;0.16;75.76;100116.94;4962216;28;20101;-43
2022/04/01 01:00:07;;;;;;;3.13;1.90;;;;;;;0.11;75.63;100117.59;4968750;28;20047;-43
2022/04/01 01:02:39;;;;;;;3.00;1.27;;;;;;;0.12;76.13;100114.25;4965549;28;20047;-42
2022/04/01 01:05:06;;;;;;;4.75;2.30;;;;;;;0.14;76.04;100126.19;4966658;28;20054;-43
2022/04/01 01:07:33;;;;;;;3.38;1.63;;;;;;;0.13;75.90;100125.28;4965744;28;20054;-43
2022/04/01 01:10:00;;;;;;;3.47;1.63;;;;;;;0.11;75.83;100120.13;4965814;28;20109;-42
2022/04/01 01:12:27;;;;;;;3.78;1.95;;;;;;;0.11;76.06;100132.88;4966032;28;20541;-44
2022/04/01 01:14:54;;;;;;;4.60;2.13;;;;;;;0.12;75.82;100126.13;4964274;28;20051;-42
2022/04/01 01:17:21;;;;;;;3.28;1.98;;;;;;;0.12;76.09;100133.75;4966029;28;20604;-44
2022/04/01 01:19:48;;;;;;;2.22;1.15;;;;;;;0.13;76.26;100125.28;4962184;28;20054;-46
2022/04/01 01:22:14;;;;;;;3.10;1.17;;;;;;;0.19;76.22;100132.31;4967943;28;20098;-44
2022/04/01 01:24:42;;;;;;;1.73;1.05;;;;;;;0.18;76.11;100128.94;4967675;28;20093;-44
2022/04/01 01:27:10;;;;;;;3.58;1.67;;;;;;;0.22;76.29;100130.78;4965376;28;20486;-43
2022/04/01 01:29:39;;;;;;;2.10;1.13;;;;;;;0.20;75.72;100121.34;4963881;28;20078;-42
2022/04/01 01:32:10;;;;;;;3.60;1.50;;;;;;;0.20;76.13;100126.44;4965224;28;20487;-46
2022/04/01 01:34:39;;;;;;;5.32;1.58;;;;;;;0.16;75.58;100115.25;4967787;28;20051;-42
2022/04/01 01:37:07;;;;;;;2.92;1.27;;;;;;;0.15;75.92;100118.59;4967608;28;20126;-45
2022/04/01 01:39:33;;;;;;;1.63;0.82;;;;;;;0.16;76.30;100117.78;4963879;28;20117;-47
2022/04/01 01:42:00;;;;;;;5.18;0.80;;;;;;;0.17;75.75;100116.13;4963995;28;20059;-46
2022/04/01 01:44:27;;;;;;;1.85;0.88;;;;;;;0.20;75.40;100121.34;4966981;28;20070;-46
2022/04/01 01:46:54;;;;;;;3.13;0.90;;;;;;;0.17;75.08;100116.97;4972029;28;20051;-44
2022/04/01 01:49:21;;;;;;;5.03;1.98;;;;;;;0.17;75.20;100121.22;4967045;28;20087;-44
2022/04/01 01:54:43;;;;;;;3.67;2.15;;;;;;;0.12;74.69;100115.94;4968841;28;20057;-42
2022/04/01 01:57:17;;;;;;;2.63;1.50;;;;;;;0.06;74.68;100113.13;4970053;28;20165;-43
2022/04/01 01:59:44;;;;;;;1.98;1.02;;;;;;;0.09;74.73;100118.34;4970312;28;20101;-43
2022/04/01 02:02:12;;;;;;;2.10;0.95;;;;;;;0.05;74.86;100124.13;4970071;28;20525;-42
2022/04/01 02:04:41;;;;;;;3.17;1.20;;;;;;;0.02;75.67;100116.34;4969215;28;20103;-44
2022/04/01 02:07:10;;;;;;;2.28;1.33;;;;;;;0.01;75.16;100122.25;4967818;28;20053;-42
2022/04/01 02:09:38;;;;;;;1.95;0.90;;;;;;;-0.04;75.59;100122.94;4968504;28;20077;-45
2022/04/01 02:12:05;;;;;;;1.75;0.80;;;;;;;-0.06;75.55;100124.56;4969500;28;20050;-42
2022/04/01 02:14:34;;;;;;;2.17;1.02;;;;;;;-0.07;75.72;100127.88;4967701;28;20105;-45
2022/04/01 02:17:00;;;;;;;3.58;1.83;;;;;;;-0.11;75.53;100126.03;4969835;28;20615;-42
2022/04/01 02:19:30;;;;;;;2.50;1.17;;;;;;;-0.14;75.74;100123.34;4969839;28;20043;-43
2022/04/01 02:21:57;;;;;;;4.60;2.00;;;;;;;-0.11;75.48;100126.03;4966588;28;20402;-49
2022/04/01 02:24:24;;;;;;;2.88;1.20;;;;;;;-0.16;75.77;100122.44;4970138;28;20101;-44
2022/04/01 02:26:52;;;;;;;3.28;1.08;;;;;;;-0.21;75.97;100124.78;4964215;28;20750;-41
2022/04/01 02:29:20;;;;;;;4.63;1.90;;;;;;;-0.18;75.83;100124.91;4969026;28;20084;-44
2022/04/01 02:31:50;;;;;;;3.05;1.55;;;;;;;-0.18;75.93;100124.03;4967864;28;20054;-43
2022/04/01 02:34:18;;;;;;;2.42;1.00;;;;;;;-0.23;76.17;100120.44;4966552;28;20055;-45
2022/04/01 02:36:45;;;;;;;2.88;1.52;;;;;;;-0.23;76.31;100125.53;4969542;28;20552;-46
2022/04/01 02:39:12;;;;;;;2.70;0.95;;;;;;;-0.24;76.18;100131.41;4967769;28;20113;-43
2022/04/01 02:41:39;;;;;;;4.55;0.90;;;;;;;-0.26;76.10;100131.34;4970636;28;20105;-41
2022/04/01 02:44:09;;;;;;;2.08;1.00;;;;;;;-0.29;76.47;100138.84;4965534;28;20070;-41
2022/04/01 02:46:40;;;;;;;3.42;1.10;;;;;;;-0.27;76.81;100140.66;4969899;28;20724;-42
2022/04/01 02:49:08;;;;;;;2.75;1.02;;;;;;;-0.28;76.31;100136.38;4969130;28;20054;-43
2022/04/01 02:51:36;;;;;;;3.72;1.75;;;;;;;-0.32;76.46;100146.34;4970569;28;20111;-43
2022/04/01 02:54:04;;;;;;;1.20;0.65;;;;;;;-0.32;76.75;100137.06;4968019;28;20094;-43
2022/04/01 02:56:32;;;;;;;2.75;1.05;;;;;;;-0.31;76.42;100133.69;4970295;28;20054;-46
2022/04/01 02:59:00;;;;;;;4.78;1.40;;;;;;;-0.35;76.55;100142.00;4967104;28;20054;-42
2022/04/01 03:01:28;;;;;;;2.88;1.40;;;;;;;-0.33;75.85;100144.63;4965430;28;20113;-41
2022/04/01 03:03:55;;;;;;;2.67;1.13;;;;;;;-0.33;76.21;100137.88;4969537;28;20046;-46
2022/04/01 03:06:22;;;;;;;2.13;1.10;;;;;;;-0.29;76.02;100136.31;4966867;28;20062;-43
2022/04/01 03:08:49;;;;;;;4.32;1.42;;;;;;;-0.32;76.41;100131.97;4970655;28;20058;-46
2022/04/01 03:11:17;;;;;;;2.25;0.75;;;;;;;-0.32;76.15;100128.53;4969274;28;20047;-44
2022/04/01 03:13:44;;;;;;;3.72;1.50;;;;;;;-0.32;76.28;100136.16;4967883;28;20371;-46
2022/04/01 03:16:12;;;;;;;2.15;1.27;;;;;;;-0.34;76.59;100133.56;4968544;28;20422;-42
2022/04/01 03:18:40;;;;;;;2.00;1.23;;;;;;;-0.33;76.12;100142.94;4970635;28;20051;-45
2022/04/01 03:21:10;;;;;;;2.63;1.02;;;;;;;-0.33;76.51;100134.44;4967855;28;20066;-47
2022/04/01 03:23:39;;;;;;;3.42;1.10;;;;;;;-0.33;76.47;100140.41;4963675;28;20055;-43
2022/04/01 03:26:07;;;;;;;2.20;0.80;;;;;;;-0.34;76.80;100143.75;4966131;28;20061;-43
2022/04/01 03:28:37;;;;;;;1.95;1.13;;;;;;;-0.34;76.90;100143.75;4965082;28;20462;-43
2022/04/01 03:31:04;;;;;;;1.60;0.98;;;;;;;-0.37;77.01;100148.72;4969686;28;20051;-43
2022/04/01 03:33:32;;;;;;;2.88;1.38;;;;;;;-0.38;77.26;100151.19;4964091;28;20101;-43
2022/04/01 03:36:00;;;;;;;2.13;0.90;;;;;;;-0.38;76.98;100157.13;4967234;28;20446;-46
2022/04/01 03:38:27;;;;;;;2.88;1.42;;;;;;;-0.40;77.32;100158.75;4969257;28;20110;-42
2022/04/01 03:40:54;;;;;;;3.25;1.25;;;;;;;-0.38;77.36;100156.28;4965202;28;20047;-41
2022/04/01 03:43:23;;;;;;;2.30;1.10;;;;;;;-0.42;77.67;100160.34;4961352;28;20109;-42
2022/04/01 03:45:53;;;;;;;6.88;1.38;;;;;;;-0.42;77.38;100160.34;4966548;28;20121;-43
2022/04/01 03:48:28;;;;;;;2.40;0.93;;;;;;;-0.42;77.67;100162.91;4964129;28;20055;-41
2022/04/01 03:50:57;;;;;;;2.60;0.80;;;;;;;-0.38;76.94;100161.38;4967857;28;20051;-43
2022/04/01 03:53:27;;;;;;;3.33;1.02;;;;;;;-0.38;77.19;100166.47;4967942;28;20058;-45
2022/04/01 03:55:56;;;;;;;3.22;1.20;;;;;;;-0.43;77.67;100164.59;4964671;28;20046;-41
2022/04/01 03:58:28;;;;;;;3.15;1.10;;;;;;;-0.39;77.70;100175.75;4962579;28;20051;-42
2022/04/01 04:00:57;;;;;;;2.08;1.10;;;;;;;-0.39;77.44;100170.69;4962544;28;20546;-42
2022/04/01 04:03:29;;;;;;;2.03;1.15;;;;;;;-0.42;77.77;100178.16;4966633;28;20046;-42
2022/04/01 04:05:58;;;;;;;3.53;1.65;;;;;;;-0.42;77.46;100171.41;4968606;28;20101;-41
2022/04/01 04:08:25;;;;;;;4.57;1.48;;;;;;;-0.39;77.37;100165.59;4965895;28;20426;-42
2022/04/01 04:10:52;;;;;;;2.22;1.17;;;;;;;-0.38;77.20;100172.41;4966919;28;20050;-45
2022/04/01 04:13:25;;;;;;;2.10;1.00;;;;;;;-0.42;77.13;100179.06;4968494;28;20566;-43
2022/04/01 04:16:32;;;;;;;1.83;1.27;;;;;;;-0.46;77.42;100168.66;4967650;28;20471;-42
2022/04/01 04:29:27;;;;;;;2.78;1.27;;;;;;;-0.54;77.64;100178.50;5022250;28;20409;-42
2022/04/01 04:44:59;;;;;;;4.50;1.80;;;;;;;-0.58;77.45;100192.75;5014996;28;20408;-41
2022/04/01 04:47:27;;;;;;;1.42;0.68;;;;;;;-0.56;77.85;100198.81;5012235;28;20456;-44
2022/04/01 04:49:57;;;;;;;2.35;1.33;;;;;;;-0.59;77.76;100202.88;5019016;28;20049;-44
2022/04/01 04:52:31;;;;;;;3.67;1.92;;;;;;;-0.59;78.09;100208.84;5018195;28;20058;-41
2022/04/01 04:55:00;;;;;;;2.25;1.17;;;;;;;-0.60;77.66;100216.41;5020928;28;20050;-43
2022/04/01 04:57:27;;;;;;;2.60;1.30;;;;;;;-0.58;77.86;100214.81;5023404;28;20099;-42
2022/04/01 04:59:57;;;;;;;2.65;1.30;;;;;;;-0.57;77.89;100216.53;5020578;28;20045;-42
2022/04/01 05:02:46;;;;;;;4.03;1.50;;;;;;;-0.60;77.79;100214.72;5017251;28;20045;-44
2022/04/01 05:05:25;;;;;;;4.10;1.67;;;;;;;-0.58;77.69;100214.81;5020992;28;20049;-47
2022/04/01 05:08:10;;;;;;;3.65;1.08;;;;;;;-0.62;77.41;100213.78;5018386;28;20179;-42
2022/04/01 05:10:45;;;;;;;3.75;1.75;;;;;;;-0.63;78.11;100217.13;5001633;28;20050;-46
2022/04/01 05:15:53;;;;;;;7.70;3.60;;;;;;;-0.43;77.17;100220.59;5056605;27;20402;-42
2022/04/01 05:26:13;;;;;;;1.65;0.80;;;;;;;-0.60;77.91;100237.63;5024267;28;20400;-43
2022/04/01 05:28:48;;;;;;;4.47;2.08;;;;;;;-0.65;78.01;100239.94;5001831;28;20046;-46
2022/04/01 05:31:38;;;;;;;3.10;1.40;;;;;;;-0.62;78.11;100245.97;4994184;28;20054;-47
2022/04/01 05:34:18;;;;;;;3.15;1.52;;;;;;;-0.63;77.77;100246.78;5008411;28;20038;-43
2022/04/01 05:36:45;;;;;;;2.88;0.95;;;;;;;-0.66;77.65;100247.50;5014869;28;20565;-44
2022/04/01 05:39:12;;;;;;;7.35;1.33;;;;;;;-0.62;77.51;100249.41;4998684;28;20085;-43
2022/04/01 05:41:40;;;;;;;3.67;1.92;;;;;;;-0.71;78.05;100248.97;4996034;28;20066;-43
2022/04/01 05:44:09;;;;;;;4.05;0.98;;;;;;;-0.69;78.55;100262.63;4999662;28;20097;-44
2022/04/01 05:46:37;;;;;;;5.53;2.33;;;;;;;-0.68;78.83;100264.38;4994038;28;20621;-44
2022/04/01 05:49:05;;;;;;;4.65;2.17;;;;;;;-0.65;78.68;100265.41;5000470;28;20073;-44
2022/04/01 05:51:33;;;;;;;5.07;2.25;;;;;;;-0.63;79.04;100257.84;5001355;28;20046;-41
2022/04/01 05:54:01;;;;;;;4.18;2.40;;;;;;;-0.60;79.33;100268.16;4995410;28;20510;-46
2022/04/01 05:56:28;;;;;;;5.00;3.08;;;;;;;-0.57;78.91;100270.81;4997602;28;20493;-44
2022/04/01 05:58:54;;;;;;;3.60;1.60;;;;;;;-0.56;78.87;100267.50;4998681;28;20047;-43
2022/04/01 06:01:45;;;;;;;3.13;1.58;;;;;;;-0.56;79.22;100275.13;5004335;28;20050;-42
2022/04/01 06:07:13;;;;;;;2.80;1.83;;;;;;;-0.50;78.83;100279.63;5057700;28;20378;-42
2022/04/01 06:10:11;;;;;;;4.60;3.08;;;;;;;-0.47;79.37;100284.84;5034809;28;20050;-43
2022/04/01 06:12:52;;;;;;;3.33;2.30;;;;;;;-0.43;78.70;100290.97;5058004;28;20053;-46
2022/04/01 06:15:47;;;;;;;22.58;2.90;;;;;;;-0.46;78.91;100290.81;5027668;28;20046;-46
2022/04/01 06:18:26;;;;;;;4.63;2.47;;;;;;;-0.44;78.69;100300.25;5025898;28;20568;-45
2022/04/01 06:20:54;;;;;;;4.10;1.95;;;;;;;-0.38;78.78;100299.66;5019561;28;20057;-43
2022/04/01 06:26:00;;;;;;;4.63;2.70;;;;;;;-0.35;78.25;100310.00;5026666;28;20404;-43
2022/04/01 06:28:39;;;;;;;2.80;2.60;;;;;;;-0.35;78.51;100304.91;4998545;28;20042;-44
2022/04/01 06:31:06;;;;;;;4.35;3.15;;;;;;;-0.31;78.52;100311.88;5002061;28;20042;-46
2022/04/01 06:38:55;;;;;;;4.95;2.55;;;;;;;-0.23;78.01;100319.88;5026364;28;21101;-46
2022/04/01 06:41:28;;;;;;;3.20;2.05;;;;;;;-0.17;77.54;100321.84;5007679;28;20058;-44
2022/04/01 06:43:55;;;;;;;2.22;1.63;;;;;;;-0.17;78.01;100319.28;5004865;28;20050;-44
2022/04/01 06:46:21;;;;;;;3.03;2.25;;;;;;;-0.12;77.73;100333.09;5001749;28;20544;-43
2022/04/01 06:48:48;;;;;;;2.22;2.03;;;;;;;-0.09;78.03;100333.22;5006652;28;20050;-46
2022/04/01 06:51:15;;;;;;;5.15;2.80;;;;;;;-0.05;77.50;100340.22;5006382;28;20053;-45
2022/04/01 06:53:42;;;;;;;3.25;3.05;;;;;;;-0.05;77.49;100330.03;5003167;28;20505;-45
2022/04/01 06:56:09;;;;;;;3.13;2.83;;;;;;;-0.02;77.18;100344.56;5002464;28;20042;-46
2022/04/01 06:58:36;;;;;;;4.05;2.50;;;;;;;0.04;77.20;100344.84;4999684;28;20058;-46
2022/04/01 07:01:03;;;;;;;4.28;2.78;;;;;;;0.10;77.29;100344.25;5001789;28;20053;-48
2022/04/01 07:03:33;;;;;;;3.28;2.50;;;;;;;0.15;76.87;100347.88;5003415;28;20136;-46
2022/04/01 07:06:02;;;;;;;5.40;2.25;;;;;;;0.20;77.15;100341.28;5005824;28;20081;-47
2022/04/01 07:08:29;;;;;;;3.60;1.80;;;;;;;0.27;76.63;100351.75;5003373;28;20093;-48
2022/04/01 07:10:55;;;;;;;4.30;2.28;;;;;;;0.34;76.22;100358.88;5003679;28;20057;-43
2022/04/01 07:13:22;;;;;;;4.00;2.85;;;;;;;0.86;76.41;100355.13;5008881;28;20077;-45
2022/04/01 07:15:50;;;;;;;2.88;2.47;;;;;;;1.54;73.32;100367.22;5007367;28;20119;-45
2022/04/01 07:18:18;;;;;;;2.97;2.40;;;;;;;2.21;71.26;100381.59;5005662;28;20058;-43
2022/04/01 07:20:45;;;;;;;2.30;0.80;;;;;;;2.83;69.70;100382.91;5001400;28;20417;-44
2022/04/01 07:23:12;;;;;;;2.92;2.63;;;;;;;3.34;67.89;100376.91;4999538;28;20053;-45
2022/04/01 07:25:39;;;;;;;2.67;2.22;;;;;;;3.88;66.96;100373.41;5001181;28;20076;-46
2022/04/01 07:28:09;;;;;;;3.00;2.33;;;;;;;4.35;65.05;100376.47;5008435;28;20045;-44
2022/04/01 07:30:36;;;;;;;3.15;2.85;;;;;;;4.85;63.34;100382.94;5002789;28;20056;-45
2022/04/01 07:33:03;;;;;;;3.72;2.30;;;;;;;5.26;62.64;100378.81;5003067;28;20053;-44
2022/04/01 07:35:30;;;;;;;5.38;2.65;;;;;;;5.55;60.17;100380.34;4999517;28;20060;-44
2022/04/01 07:37:57;;;;;;;2.17;1.85;;;;;;;5.85;58.23;100377.59;5003630;28;20053;-46
2022/04/01 07:40:24;;;;;;;2.38;2.15;;;;;;;6.06;57.39;100378.03;5007422;28;20053;-48
2022/04/01 07:42:52;;;;;;;3.45;2.45;;;;;;;6.40;57.81;100379.63;5005978;28;20137;-46
2022/04/01 07:45:20;;;;;;;2.45;2.13;;;;;;;6.66;57.58;100386.97;5002587;28;20050;-48
2022/04/01 07:47:48;;;;;;;2.78;2.13;;;;;;;6.89;56.36;100391.66;5009413;28;20049;-48
2022/04/01 07:50:17;;;;;;;2.72;2.53;;;;;;;7.16;54.77;100390.41;4992432;28;20049;-50
2022/04/01 07:52:44;;;;;;;6.32;3.55;;;;;;;7.39;55.40;100399.34;4991164;28;20241;-46
2022/04/01 07:55:13;;;;;;;2.28;1.00;;;;;;;7.66;54.67;100398.91;4981134;28;21081;-47
2022/04/01 07:57:41;;;;;;;3.15;2.22;;;;;;;7.89;52.65;100410.41;4996298;28;20054;-46
2022/04/01 08:00:14;;;;;;;3.20;1.67;;;;;;;8.08;52.84;100401.22;4991829;28;20057;-48
2022/04/01 08:02:40;;;;;;;2.47;2.28;;;;;;;8.07;51.57;100409.81;4968183;28;20073;-45
2022/04/01 08:05:08;;;;;;;2.97;1.80;;;;;;;8.22;51.12;100403.97;5001083;28;20053;-47
2022/04/01 08:07:35;;;;;;;1.75;1.65;;;;;;;8.11;50.42;100398.69;4994903;28;20050;-47
2022/04/01 08:10:04;;;;;;;1.80;1.55;;;;;;;8.37;50.24;100413.63;4995380;28;20422;-46
2022/04/01 08:12:39;;;;;;;3.40;1.83;;;;;;;8.56;49.58;100419.03;4994311;28;20054;-46
2022/04/01 08:15:06;;;;;;;2.53;1.73;;;;;;;8.78;49.84;100414.13;4990315;28;20137;-49
2022/04/01 08:17:33;;;;;;;2.28;2.08;;;;;;;8.82;48.58;100415.88;4996111;28;20089;-49
2022/04/01 08:20:17;;;;;;;2.17;1.83;;;;;;;8.89;48.63;100417.69;4991085;28;20052;-45
2022/04/01 08:22:44;;;;;;;1.98;1.88;;;;;;;8.95;48.50;100425.47;4984763;28;20172;-46
2022/04/01 08:25:17;;;;;;;3.03;1.88;;;;;;;9.07;48.58;100431.63;4990782;28;20076;-45
2022/04/01 08:27:43;;;;;;;4.10;1.88;;;;;;;9.31;48.60;100424.94;4984459;28;20108;-46
2022/04/01 08:30:10;;;;;;;1.75;1.50;;;;;;;9.39;47.35;100433.63;4991079;28;20085;-48
2022/04/01 08:32:37;;;;;;;4.13;2.25;;;;;;;9.55;47.51;100428.59;4989245;28;20123;-48
2022/04/01 08:35:07;;;;;;;2.53;1.60;;;;;;;9.87;47.12;100443.47;4986012;28;20045;-47
2022/04/01 08:37:34;;;;;;;3.55;2.17;;;;;;;10.00;45.71;100447.84;4990198;28;20046;-48
2022/04/01 08:40:01;;;;;;;4.47;3.22;;;;;;;9.93;45.76;100440.91;4999860;28;20050;-44
2022/04/01 08:42:28;;;;;;;1.60;1.42;;;;;;;9.99;45.35;100445.25;4980138;28;20051;-47
2022/04/01 08:44:55;;;;;;;2.55;1.88;;;;;;;10.02;45.04;100451.34;4989703;28;20116;-43
2022/04/01 08:47:21;;;;;;;3.35;1.75;;;;;;;10.22;45.00;100447.97;4994182;28;20042;-45
2022/04/01 08:49:48;;;;;;;2.30;0.80;;;;;;;10.29;44.95;100454.94;4985637;28;20525;-48
2022/04/01 08:52:16;;;;;;;2.17;1.98;;;;;;;10.53;45.35;100447.28;4991071;28;20120;-45
2022/04/01 08:54:43;;;;;;;7.85;0.52;;;;;;;10.61;44.54;100461.13;4990564;28;20596;-46
2022/04/01 08:57:09;;;;;;;3.30;1.95;;;;;;;10.76;43.81;100452.56;4986810;28;20050;-50
2022/04/01 08:59:37;;;;;;;1.90;1.75;;;;;;;10.94;44.04;100450.84;4993753;28;20049;-47
2022/04/01 09:02:09;;;;;;;2.47;2.30;;;;;;;10.88;41.98;100450.84;4984514;28;20126;-43
2022/04/01 09:04:37;;;;;;;3.30;2.35;;;;;;;11.01;42.37;100460.38;4984662;28;20062;-46
2022/04/01 09:07:19;;;;;;;4.65;2.40;;;;;;;11.35;43.11;100450.94;4997403;28;20439;-50
2022/04/01 09:09:46;;;;;;;2.80;1.98;;;;;;;11.78;43.13;100471.66;4990788;28;20086;-47
2022/04/01 09:12:15;;;;;;;2.45;2.20;;;;;;;11.63;41.38;100469.09;4996178;28;20478;-46
2022/04/01 09:14:51;;;;;;;1.92;1.60;;;;;;;11.62;41.95;100456.97;4991052;28;20050;-47
2022/04/01 09:17:18;;;;;;;3.13;2.20;;;;;;;11.60;41.76;100463.88;4997043;28;20054;-47
2022/04/01 09:19:49;;;;;;;2.05;1.95;;;;;;;11.53;40.48;100463.91;4983415;28;20073;-49
2022/04/01 09:22:19;;;;;;;3.25;2.10;;;;;;;11.73;41.05;100460.44;4988853;28;20046;-48
2022/04/01 09:30:09;;;;;;;2.25;1.10;;;;;;;12.02;40.52;100469.91;5028673;27;20767;-47
2022/04/01 09:35:16;;;;;;;2.70;0.70;;;;;;;11.74;39.74;100462.16;5030624;28;20394;-46
2022/04/01 09:37:45;;;;;;;4.85;0.70;;;;;;;11.68;39.68;100462.16;5008328;28;20045;-47
2022/04/01 09:40:17;;;;;;;1.90;0.60;;;;;;;12.04;40.66;100477.69;5010434;28;20057;-49
2022/04/01 09:42:47;;;;;;;2.60;0.55;;;;;;;12.40;41.53;100469.84;4999366;28;20727;-51
2022/04/01 09:45:15;;;;;;;;;;;;;;;12.46;38.40;100472.41;5032977;28;20056;-49
2022/04/01 09:47:42;;;;;;;2.45;0.63;;;;;;;12.54;38.96;100478.44;5034269;28;19926;-47
2022/04/01 09:50:13;;;;;;;1.67;0.65;;;;;;;12.56;39.05;100476.69;5033464;28;21709;-50
2022/04/01 09:52:42;;;;;;;1.45;0.47;;;;;;;12.38;39.31;100475.03;5062048;28;20064;-45
2022/04/01 09:55:09;;;;;;;5.47;2.78;;;;;;;12.45;38.41;100481.06;5032588;28;20620;-51
2022/04/01 09:57:36;;;;;;;1.63;0.63;;;;;;;12.30;37.63;100477.63;5033230;28;20462;-46
2022/04/01 10:00:05;;;;;;;1.85;1.00;;;;;;;12.33;39.33;100477.63;5030910;28;20493;-49
2022/04/01 10:02:32;;;;;;;2.17;0.93;;;;;;;12.02;37.91;100482.03;5032096;28;20119;-51
2022/04/01 10:04:58;;;;;;;1.10;0.55;;;;;;;11.29;39.14;100467.34;5026848;28;20053;-45
2022/04/01 10:07:28;;;;;;;1.52;0.60;;;;;;;10.62;41.01;100477.53;5026404;28;20058;-46
2022/04/01 10:09:56;;;;;;;3.30;0.50;;;;;;;10.31;40.69;100478.25;5025836;28;20052;-50
2022/04/01 10:12:29;;;;;;;2.83;0.55;;;;;;;10.07;40.47;100479.84;5037761;28;20048;-47
2022/04/01 10:14:58;;;;;;;1.52;0.73;;;;;;;10.22;42.24;100476.47;5033848;28;20060;-47
2022/04/01 10:17:46;;;;;;;2.13;0.40;;;;;;;10.54;41.59;100480.97;5025474;28;20067;-47
2022/04/01 10:20:13;;;;;;;1.95;1.02;;;;;;;10.34;40.54;100479.97;5029611;28;20053;-45
2022/04/01 10:22:42;;;;;;;0.80;0.50;;;;;;;9.74;41.22;100477.03;5027057;28;20058;-44
2022/04/01 10:25:23;;;;;;;1.40;0.52;;;;;;;9.60;41.74;100483.81;5020828;28;20401;-47
2022/04/01 10:27:52;;;;;;;2.45;0.40;;;;;;;9.59;42.77;100477.75;5005522;28;20143;-47
2022/04/01 10:30:23;;;;;;;1.58;0.30;;;;;;;9.98;42.33;100480.63;5023374;28;20485;-50
2022/04/01 10:33:07;;;;;;;0.98;0.50;;;;;;;10.26;42.12;100480.78;5021394;28;20097;-46
2022/04/01 10:35:37;;;;;;;2.67;0.65;;;;;;;10.44;41.64;100481.75;5032547;28;20064;-48
2022/04/01 10:40:44;;;;;;;1.13;0.73;;;;;;;9.91;41.35;100478.84;5033716;28;20386;-47
2022/04/01 10:43:21;;;;;;;1.75;1.65;;;;;;;9.68;41.07;100484.72;5044664;28;20144;-46
2022/04/01 10:52:02;;;;;;;1.35;1.25;;;;;;;10.13;40.04;100489.34;5005542;28;20101;-44
2022/04/01 10:57:06;;;;;;;0.80;0.68;;;;;;;10.39;39.30;100486.91;5016510;28;20766;-45
2022/04/01 10:59:43;;;;;;;0.50;0.30;;;;;;;10.08;38.58;100485.84;4996855;28;20046;-44
2022/04/01 11:02:15;;;;;;;1.08;0.60;;;;;;;9.49;39.95;100507.84;4994459;28;20088;-47
2022/04/01 11:04:44;;;;;;;2.15;0.43;;;;;;;9.03;40.96;100489.28;4997091;28;20050;-48
2022/04/01 11:07:29;;;;;;;0.90;0.38;;;;;;;8.53;41.62;100501.59;4996855;28;20064;-46
2022/04/01 11:10:00;;;;;;;1.23;0.43;;;;;;;8.45;42.90;100492.00;5009054;28;20054;-47
2022/04/01 11:12:41;;;;;;;1.48;0.47;;;;;;;8.66;43.28;100493.19;4996754;28;20157;-45
2022/04/01 11:15:09;;;;;;;1.67;0.38;;;;;;;8.81;42.61;100492.50;4995592;28;20050;-45
2022/04/01 11:20:14;;;;;;;4.28;0.55;;;;;;;9.33;42.34;100478.41;5035198;27;20973;-47
2022/04/01 11:33:26;;;;;;;2.80;0.50;;;;;;;9.37;41.52;100481.88;4995306;28;20482;-50
2022/04/01 11:35:54;;;;;;;1.63;0.45;;;;;;;9.44;41.50;100488.84;4992619;28;20390;-45
2022/04/01 11:38:23;;;;;;;1.77;0.47;;;;;;;9.42;39.22;100480.19;4995191;28;20058;-48
2022/04/01 11:40:54;;;;;;;1.33;0.60;;;;;;;9.25;38.99;100488.66;4992261;28;20108;-48
2022/04/01 11:43:22;;;;;;;1.00;0.68;;;;;;;9.09;40.04;100491.94;4991908;28;20498;-46
2022/04/01 11:51:12;;;;;;;2.40;1.20;;;;;;;8.48;41.98;100489.47;5005469;27;20411;-49
2022/04/01 11:53:45;;;;;;;2.35;1.30;;;;;;;8.58;42.54;100494.81;4989649;28;20108;-49
2022/04/01 11:56:13;;;;;;;1.63;1.38;;;;;;;8.63;40.68;100493.16;4996828;28;20046;-48
2022/04/01 12:01:25;;;;;;;0.80;0.50;;;;;;;8.08;43.02;100530.22;5011030;28;21003;-47
2022/04/01 12:04:11;;;;;;;1.45;0.90;;;;;;;7.58;46.36;100550.03;4950829;28;20062;-49
2022/04/01 12:09:29;;;;;;;1.58;1.10;;;;;;;6.52;50.26;100545.41;4952901;28;20443;-49
2022/04/01 12:11:58;;;;;;;1.15;0.50;;;;;;;6.35;51.87;100547.59;4949122;28;20058;-47
2022/04/01 12:14:25;;;;;;;2.88;1.92;;;;;;;6.22;52.49;100536.16;4961106;28;20325;-48
2022/04/01 12:16:54;;;;;;;2.05;0.30;;;;;;;6.21;53.82;100531.84;4974996;28;20113;-45
2022/04/01 12:19:21;;;;;;;1.00;0.50;;;;;;;6.40;53.04;100533.13;4968548;28;20047;-50
2022/04/01 12:21:50;;;;;;;0.82;0.40;;;;;;;6.64;53.43;100522.50;4973671;28;20054;-51
2022/04/01 12:24:18;;;;;;;2.15;2.00;;;;;;;6.85;53.31;100512.63;4987698;28;20479;-46
2022/04/01 12:26:48;;;;;;;1.55;0.30;;;;;;;7.04;52.14;100516.41;4971579;28;20046;-47
2022/04/01 12:29:24;;;;;;;1.08;0.40;;;;;;;7.32;52.56;100512.66;4968906;28;20055;-48
2022/04/01 12:31:55;;;;;;;0.93;0.38;;;;;;;7.61;51.84;100519.16;4968763;28;20131;-47
2022/04/01 12:34:23;;;;;;;1.45;0.40;;;;;;;7.91;49.94;100501.59;4966914;28;20053;-47
2022/04/01 12:36:53;;;;;;;2.42;0.80;;;;;;;8.02;50.11;100499.16;4970580;28;20098;-47
2022/04/01 12:39:23;;;;;;;2.42;1.80;;;;;;;8.27;49.53;100491.78;4977668;28;20042;-50
2022/04/01 12:44:28;;;;;;;1.67;1.20;;;;;;;8.67;48.33;100489.75;5033595;28;20400;-47
2022/04/01 12:46:57;;;;;;;2.90;1.17;;;;;;;8.78;48.59;100484.69;5034942;28;20045;-48
2022/04/01 12:49:25;;;;;;;1.80;0.85;;;;;;;8.77;46.28;100471.78;5031058;28;20061;-45
2022/04/01 12:51:55;;;;;;;1.58;0.70;;;;;;;8.59;46.38;100483.63;5017577;28;20616;-45
2022/04/01 12:54:27;;;;;;;2.22;0.57;;;;;;;8.10;47.48;100482.06;5032986;28;20141;-44
2022/04/01 12:56:55;;;;;;;1.77;0.88;;;;;;;7.75;49.15;100485.00;5021368;28;20504;-45
2022/04/01 12:59:22;;;;;;;1.98;0.85;;;;;;;7.49;47.99;100493.19;5023456;28;20050;-43
2022/04/01 13:04:47;;;;;;;2.08;1.92;;;;;;;7.39;47.37;100500.75;5052946;27;20390;-45
2022/04/01 13:07:19;;;;;;;1.98;1.77;;;;;;;7.43;49.21;100497.38;5018742;28;20057;-47
2022/04/01 13:15:12;;;;;;;1.05;0.68;;;;;;;7.85;46.76;100504.94;5001578;28;20408;-47
2022/04/01 13:17:40;;;;;;;;;;;;;;;7.92;48.42;100495.56;4977965;28;20053;-47
2022/04/01 13:20:08;;;;;;;1.88;0.98;;;;;;;7.97;48.24;100502.53;4997046;28;19926;-49
2022/04/01 13:22:35;;;;;;;4.35;1.13;;;;;;;7.99;48.14;100505.16;4982772;28;20050;-49